Bangkok (Suvarnabhumi), Thailand

10:38 AM ICT on November 29, 2014 (GMT +0700)
Bangkok (Suvarnabhumi) | Change Station
CLOSE
Current Station
Airport
Location: Bangkok (Suvarnabhumi),
Elevation: 7 ft
Nearby Weather Stations

Elev 7 ft 13.36 °N, 100.98 °E | Updated 8 minutes ago

Scattered Clouds
Scattered Clouds
90 °F
Feels Like 98 °F
N
5
Wind Variable Wind from NNW

Today
High -- | Low -- °F
--% Chance of Precip.
Yesterday
High -- | Low -- °F
Precip. -- in
6:21 AM 5:46 PM
Waxing Crescent, 47% visible
Pressure 29.86 in
Visibility 5.6 miles
Clouds Few 3000 ft
Scattered Clouds 30000 ft
Heat Index 98 °F
Dew Point 73 °F
Humidity 59%
Rainfall 0.00 in
Snow Depth Not available.
UV 8 out of 12
Pollen Not available.
Air Quality Not available.
Flu Activity Not available.
METAR VTBS 290330Z 34004KT 9000 FEW030 SCT300 32/23 Q1011 NOSIG

More Conditions Fewer Conditions

Pressure 29.86 in
Visibility 5.6 miles
Clouds Few 3000 ft
Scattered Clouds 30000 ft
Heat Index 98 °F
Dew Point 73 °F
Humidity 59%
Rainfall 0.00 in
Snow Depth Not available.
UV 8 out of 12
Pollen Not available.
Air Quality Not available.
Flu Activity Not available.
METAR VTBS 290330Z 34004KT 9000 FEW030 SCT300 32/23 Q1011 NOSIG

More Conditions Fewer Conditions

10-Day Weather Forecast

Almanac

Astronomy

Nov. 29, 2014 Rise Set
Actual Time
Civil Twilight
Nautical Twilight
Astronomical Twilight
Moon
Length of Visible Light
Length of Day
Tomorrow will be .
, % of the Moon is Illuminated

Today's Extremes

Country Highs Country Lows

Community

WunderPhotos

Upload Photos

1,774,385 photos uploaded!

WunderBlogs® & News

Nearby

Air Quality

  Air Quality AQ Index Pollutant
Not available.

Snow Depth

Station Depth Elevation

Earthquake Activity

City Distance Mag. Time & Date
Minimum magnitude displayed is 2.5.

Coastal Water Temperatures

Place Temperature

Nearby Weather Stations